createdAt,value
2018-09-27T00:00:59.299Z,51.20
2018-09-27T00:03:30.733Z,50.60
2018-09-27T00:06:02.352Z,51.50
2018-09-27T00:08:33.837Z,51.10
2018-09-27T00:11:05.317Z,50.90
2018-09-27T00:13:36.744Z,50.70
2018-09-27T00:16:08.387Z,50.80
2018-09-27T00:18:39.759Z,50.10
2018-09-27T00:21:11.304Z,50.30
2018-09-27T00:23:42.776Z,49.80
2018-09-27T00:26:14.433Z,50.50
2018-09-27T00:28:45.791Z,50.20
2018-09-27T00:31:17.195Z,50.30
2018-09-27T00:33:48.780Z,49.90
2018-09-27T00:36:20.296Z,50.40
2018-09-27T00:38:51.747Z,49.60
2018-09-27T00:41:23.204Z,50.30
2018-09-27T00:43:54.690Z,50.10
2018-09-27T00:46:26.204Z,50.30
2018-09-27T00:48:57.724Z,50.00
2018-09-27T00:51:28.827Z,50.10
2018-09-27T00:54:00.008Z,51.90
2018-09-27T00:56:30.967Z,50.40
2018-09-27T00:59:01.668Z,50.20
2018-09-27T01:01:32.696Z,50.80
2018-09-27T01:04:04.301Z,50.30
2018-09-27T01:06:35.753Z,49.80
2018-09-27T01:09:09.806Z,50.10
2018-09-27T01:14:12.759Z,50.30
2018-09-27T01:16:44.312Z,50.60
2018-09-27T01:19:15.777Z,50.10
2018-09-27T01:21:47.346Z,50.40
2018-09-27T01:24:18.803Z,50.10
2018-09-27T01:26:50.363Z,50.30
2018-09-27T01:29:21.806Z,50.70
2018-09-27T01:36:55.801Z,49.10
2018-09-27T01:39:27.304Z,49.70
2018-09-27T01:41:58.788Z,50.00
2018-09-27T01:44:30.367Z,50.40
2018-09-27T01:47:01.960Z,50.00
2018-09-27T01:49:33.409Z,50.40
2018-09-27T01:52:04.916Z,49.70
2018-09-27T01:54:35.593Z,50.40
2018-09-27T01:57:06.996Z,50.40
2018-09-27T01:59:38.623Z,50.40
2018-09-27T02:02:10.306Z,50.20
2018-09-27T02:04:41.762Z,50.10
2018-09-27T02:07:13.643Z,50.20
2018-09-27T02:09:45.225Z,50.00
2018-09-27T02:12:17.235Z,50.80
2018-09-27T02:14:48.705Z,50.50
2018-09-27T02:17:20.310Z,50.60
2018-09-27T02:19:51.779Z,50.80
2018-09-27T02:22:23.311Z,50.80
2018-09-27T02:24:54.789Z,50.60
2018-09-27T02:27:26.751Z,50.90
2018-09-27T02:29:58.196Z,50.60
2018-09-27T02:32:29.714Z,51.10
2018-09-27T02:35:01.320Z,51.30
2018-09-27T02:37:32.746Z,51.70
2018-09-27T02:40:04.308Z,50.90
2018-09-27T02:42:35.748Z,50.50
2018-09-27T02:45:07.376Z,51.20
2018-09-27T02:47:38.797Z,50.40
2018-09-27T02:50:10.392Z,50.30
2018-09-27T02:52:41.730Z,50.20
2018-09-27T02:55:13.358Z,51.00
2018-09-27T02:57:44.751Z,49.90
2018-09-27T03:00:16.223Z,50.50
2018-09-27T03:02:47.696Z,50.30
2018-09-27T03:05:19.224Z,50.60
2018-09-27T03:07:50.743Z,50.50
2018-09-27T03:12:52.555Z,50.70
2018-09-27T03:15:24.213Z,50.60
2018-09-27T03:17:55.655Z,50.70
2018-09-27T03:20:27.204Z,50.30
2018-09-27T03:22:58.662Z,50.50
2018-09-27T03:25:30.209Z,50.50
2018-09-27T03:28:01.740Z,50.60
2018-09-27T03:30:33.208Z,51.10
2018-09-27T03:33:04.772Z,50.70
2018-09-27T03:35:36.321Z,50.90
2018-09-27T03:38:07.870Z,50.90
2018-09-27T03:40:39.421Z,51.10
2018-09-27T03:43:10.821Z,51.10
2018-09-27T03:45:42.352Z,50.90
2018-09-27T03:48:13.815Z,51.00
2018-09-27T03:50:45.314Z,51.00
2018-09-27T03:53:16.835Z,50.50
2018-09-27T03:55:48.292Z,50.30
2018-09-27T03:58:21.268Z,50.70
2018-09-27T04:00:52.711Z,50.90
2018-09-27T04:03:24.039Z,51.40
2018-09-27T04:05:55.538Z,50.90
2018-09-27T04:08:26.966Z,51.10
2018-09-27T04:10:57.553Z,51.10
2018-09-27T04:13:29.213Z,51.30
2018-09-27T04:16:00.710Z,50.90
2018-09-27T04:18:32.311Z,51.50
2018-09-27T04:21:03.747Z,50.90
2018-09-27T04:23:35.304Z,51.20
2018-09-27T04:26:07.210Z,51.10
2018-09-27T04:28:38.681Z,51.30
2018-09-27T04:31:10.403Z,51.40
2018-09-27T04:33:41.914Z,51.40
2018-09-27T04:36:13.331Z,51.50
2018-09-27T04:38:44.742Z,51.30
2018-09-27T04:41:16.199Z,51.10
2018-09-27T04:43:47.717Z,51.10
2018-09-27T04:46:19.313Z,51.90
2018-09-27T04:51:46.725Z,52.00
2018-09-27T04:54:17.781Z,51.60
2018-09-27T04:56:48.763Z,51.90
2018-09-27T04:59:19.839Z,51.20
2018-09-27T05:01:50.859Z,51.40
2018-09-27T05:04:22.474Z,51.20
2018-09-27T05:06:54.272Z,52.10
2018-09-27T05:09:25.695Z,50.70
2018-09-27T05:11:57.211Z,51.10
2018-09-27T05:14:28.855Z,50.70
2018-09-27T05:17:00.415Z,50.70
2018-09-27T05:22:12.667Z,50.70
2018-09-27T05:24:43.663Z,50.90
2018-09-27T05:27:14.828Z,50.70
2018-09-27T05:29:46.314Z,51.20
2018-09-27T05:32:17.615Z,50.20
2018-09-27T05:34:48.908Z,50.90
2018-09-27T05:37:20.346Z,50.60
2018-09-27T05:39:51.655Z,50.60
2018-09-27T05:42:23.227Z,50.50
2018-09-27T05:44:54.747Z,50.60
2018-09-27T05:52:28.564Z,49.90
2018-09-27T05:55:00.216Z,50.60
2018-09-27T05:57:31.690Z,50.60
2018-09-27T06:00:03.197Z,50.70
2018-09-27T06:02:34.730Z,51.00
2018-09-27T06:05:06.347Z,50.90
2018-09-27T06:07:37.789Z,51.50
2018-09-27T06:10:09.379Z,50.90
2018-09-27T06:12:40.885Z,50.80
2018-09-27T06:15:12.548Z,51.20
2018-09-27T06:17:43.996Z,51.50
2018-09-27T06:20:15.706Z,51.30
2018-09-27T06:22:47.312Z,51.50
2018-09-27T06:25:18.831Z,51.70
2018-09-27T06:27:50.373Z,51.50
2018-09-27T06:30:21.884Z,51.20
2018-09-27T06:32:53.408Z,51.80
2018-09-27T06:35:24.824Z,51.70
2018-09-27T06:43:00.717Z,51.30
2018-09-27T06:45:32.435Z,52.20
2018-09-27T06:48:03.766Z,52.70
2018-09-27T06:55:36.767Z,51.50
2018-09-27T06:58:08.209Z,52.20
2018-09-27T07:00:39.716Z,52.20
2018-09-27T07:03:11.321Z,52.50
2018-09-27T07:05:42.783Z,52.40
2018-09-27T07:08:14.373Z,52.50
2018-09-27T07:10:45.984Z,52.30
2018-09-27T07:13:17.744Z,52.60
2018-09-27T07:15:49.816Z,52.60
2018-09-27T07:18:21.576Z,52.50
2018-09-27T07:20:53.573Z,52.60
2018-09-27T07:23:25.219Z,52.80
2018-09-27T07:25:58.667Z,53.10
2018-09-27T07:28:30.376Z,53.30
2018-09-27T07:31:01.844Z,53.30
2018-09-27T07:33:33.387Z,53.30
2018-09-27T07:36:05.457Z,53.40
2018-09-27T07:38:37.753Z,53.40
2018-09-27T07:41:09.295Z,53.20
2018-09-27T07:43:40.764Z,53.20
2018-09-27T07:46:12.692Z,53.50
2018-09-27T07:48:43.858Z,53.10
2018-09-27T07:51:15.406Z,53.60
2018-09-27T07:53:46.853Z,53.10
2018-09-27T07:56:18.399Z,53.80
2018-09-27T07:58:49.792Z,53.60
2018-09-27T08:01:21.216Z,54.00
2018-09-27T08:03:52.686Z,53.60
2018-09-27T08:06:24.231Z,53.90
2018-09-27T08:08:55.689Z,53.90
2018-09-27T08:11:27.385Z,53.80
2018-09-27T08:13:58.769Z,54.00
2018-09-27T08:16:30.307Z,54.00
2018-09-27T08:19:01.743Z,53.70
2018-09-27T08:21:33.469Z,54.10
2018-09-27T08:24:04.755Z,53.70
2018-09-27T08:26:36.378Z,54.10
2018-09-27T08:29:07.830Z,53.70
2018-09-27T08:34:09.741Z,54.10
2018-09-27T08:36:41.236Z,54.10
2018-09-27T08:39:13.720Z,53.90
2018-09-27T08:41:45.241Z,54.20
2018-09-27T08:44:16.768Z,54.10
2018-09-27T08:46:48.318Z,54.20
2018-09-27T08:49:19.818Z,53.80
2018-09-27T08:51:51.330Z,54.10
2018-09-27T08:54:22.807Z,53.80
2018-09-27T08:56:54.319Z,54.10
2018-09-27T08:59:25.851Z,53.80
2018-09-27T09:01:57.492Z,54.20
2018-09-27T09:04:28.980Z,53.90
2018-09-27T09:06:59.645Z,54.20
2018-09-27T09:09:31.291Z,54.20
2018-09-27T09:12:02.837Z,54.10
2018-09-27T09:14:34.284Z,54.20
2018-09-27T09:17:05.746Z,53.80
2018-09-27T09:19:37.454Z,54.10
2018-09-27T09:22:08.775Z,53.80
2018-09-27T09:24:40.385Z,54.10
2018-09-27T09:27:12.019Z,53.70
2018-09-27T09:29:43.857Z,54.00
2018-09-27T09:32:15.227Z,54.20
2018-09-27T09:34:46.766Z,54.40
2018-09-27T09:37:18.386Z,54.10
2018-09-27T09:39:49.853Z,53.60
2018-09-27T09:42:21.493Z,53.90
2018-09-27T09:44:53.000Z,53.60
2018-09-27T09:47:24.695Z,53.90
2018-09-27T09:49:56.432Z,53.90
2018-09-27T09:52:27.914Z,53.90
2018-09-27T09:54:59.692Z,53.80
2018-09-27T09:57:31.231Z,53.90
2018-09-27T10:00:02.698Z,53.80
2018-09-27T10:02:34.362Z,53.90
2018-09-27T10:05:05.843Z,53.70
2018-09-27T10:07:37.772Z,53.80
2018-09-27T10:10:09.400Z,53.50
2018-09-27T10:12:40.822Z,53.40
2018-09-27T10:15:12.510Z,53.70
2018-09-27T10:17:43.859Z,53.30
2018-09-27T10:20:15.436Z,53.70
2018-09-27T10:22:46.808Z,53.30
2018-09-27T10:25:18.360Z,53.60
2018-09-27T10:27:49.772Z,53.30
2018-09-27T10:30:21.356Z,53.60
2018-09-27T10:32:52.841Z,53.20
2018-09-27T10:40:27.221Z,52.60
2018-09-27T10:42:58.688Z,53.30
2018-09-27T10:45:30.611Z,53.40
2018-09-27T10:48:02.221Z,53.40
2018-09-27T10:50:33.784Z,53.40
2018-09-27T10:53:05.325Z,53.40
2018-09-27T10:55:36.781Z,53.10
2018-09-27T10:58:08.682Z,53.40
2018-09-27T11:00:40.209Z,53.10
2018-09-27T11:03:11.666Z,53.40
2018-09-27T11:05:43.490Z,53.40
2018-09-27T11:08:15.003Z,53.40
2018-09-27T11:10:46.659Z,53.30
2018-09-27T11:13:18.814Z,53.30
2018-09-27T11:15:50.341Z,53.20
2018-09-27T11:18:21.836Z,53.00
2018-09-27T11:20:53.467Z,53.30
2018-09-27T11:23:24.925Z,53.00
2018-09-27T11:25:56.608Z,53.30
2018-09-27T11:28:31.796Z,53.40
2018-09-27T11:31:08.580Z,53.40
2018-09-27T11:33:40.233Z,53.00
2018-09-27T11:36:12.233Z,53.40
2018-09-27T11:38:43.757Z,53.40
2018-09-27T11:41:15.232Z,53.40
2018-09-27T11:43:46.753Z,53.40
2018-09-27T11:46:18.428Z,53.40
2018-09-27T11:48:50.265Z,53.00
2018-09-27T11:51:22.227Z,53.40
2018-09-27T11:53:53.705Z,53.40
2018-09-27T11:56:25.081Z,53.40
2018-09-27T11:58:56.818Z,53.40
2018-09-27T12:01:28.607Z,53.70
2018-09-27T12:04:00.007Z,53.10
2018-09-27T12:06:31.716Z,53.40
2018-09-27T12:09:03.223Z,53.40
2018-09-27T12:11:35.215Z,53.40
2018-09-27T12:14:06.852Z,53.40
2018-09-27T12:16:38.745Z,53.40
2018-09-27T12:19:10.457Z,53.00
2018-09-27T12:21:41.841Z,53.90
2018-09-27T12:24:13.674Z,53.40
2018-09-27T12:26:45.227Z,53.00
2018-09-27T12:29:16.914Z,53.40
2018-09-27T12:31:48.425Z,53.40
2018-09-27T12:34:20.226Z,53.40
2018-09-27T12:36:51.700Z,53.40
2018-09-27T12:41:48.679Z,53.40
2018-09-27T12:44:19.748Z,53.40
2018-09-27T12:46:51.284Z,53.40
2018-09-27T12:49:22.793Z,53.50
2018-09-27T12:51:54.458Z,53.40
2018-09-27T12:54:25.922Z,53.00
2018-09-27T12:56:56.655Z,53.40
2018-09-27T12:59:28.342Z,53.30
2018-09-27T13:02:00.146Z,53.40
2018-09-27T13:04:31.704Z,53.30
2018-09-27T13:07:03.415Z,53.30
2018-09-27T13:09:35.305Z,53.30
2018-09-27T13:14:50.392Z,53.30
2018-09-27T13:17:21.539Z,53.40
2018-09-27T13:19:52.842Z,53.30
2018-09-27T13:27:26.704Z,52.40
2018-09-27T13:29:58.349Z,53.20
2018-09-27T13:32:29.937Z,53.20
2018-09-27T13:35:00.614Z,53.20
2018-09-27T13:37:31.975Z,53.20
2018-09-27T13:40:02.758Z,53.20
2018-09-27T13:42:34.218Z,53.20
2018-09-27T13:45:05.763Z,53.30
2018-09-27T13:47:37.364Z,53.30
2018-09-27T13:50:08.927Z,53.60
2018-09-27T13:52:40.587Z,53.70
2018-09-27T13:55:12.361Z,53.30
2018-09-27T13:57:43.893Z,53.50
2018-09-27T14:00:15.472Z,53.30
2018-09-27T14:02:46.865Z,53.30
2018-09-27T14:05:18.637Z,53.30
2018-09-27T14:07:50.088Z,52.90
2018-09-27T14:10:21.779Z,53.40
2018-09-27T14:15:24.441Z,53.40
2018-09-27T14:17:55.909Z,53.00
2018-09-27T14:20:27.529Z,53.20
2018-09-27T14:22:59.320Z,53.20
2018-09-27T14:25:30.765Z,53.20
2018-09-27T14:28:02.324Z,53.10
2018-09-27T14:30:33.928Z,52.90
2018-09-27T14:33:04.362Z,53.00
2018-09-27T14:35:35.625Z,53.00
2018-09-27T14:38:06.702Z,53.00
2018-09-27T14:40:38.390Z,52.90
2018-09-27T14:43:09.865Z,53.00
2018-09-27T14:45:41.390Z,53.00
2018-09-27T14:48:12.967Z,53.10
2018-09-27T14:50:43.586Z,53.10
2018-09-27T14:53:14.975Z,53.20
2018-09-27T14:55:46.572Z,53.20
2018-09-27T14:58:17.869Z,53.30
2018-09-27T15:00:49.734Z,53.30
2018-09-27T15:03:21.205Z,53.10
2018-09-27T15:05:52.736Z,53.00
2018-09-27T15:08:25.198Z,53.00
2018-09-27T15:10:56.723Z,53.10
2018-09-27T15:13:28.419Z,52.60
2018-09-27T15:15:59.825Z,53.10
2018-09-27T15:18:31.347Z,53.00
2018-09-27T15:21:02.870Z,52.70
2018-09-27T15:23:34.391Z,53.00
2018-09-27T15:26:06.008Z,52.90
2018-09-27T15:28:37.669Z,53.00
2018-09-27T15:31:09.437Z,52.90
2018-09-27T15:33:41.005Z,52.90
2018-09-27T15:36:12.687Z,52.90
2018-09-27T15:38:44.209Z,52.90
2018-09-27T15:41:15.775Z,52.90
2018-09-27T15:43:47.351Z,53.00
2018-09-27T15:46:18.791Z,52.60
2018-09-27T15:53:52.802Z,52.00
2018-09-27T15:56:24.441Z,52.80
2018-09-27T15:58:55.901Z,52.50
2018-09-27T16:01:27.457Z,52.90
2018-09-27T16:03:58.894Z,52.90
2018-09-27T16:06:29.609Z,53.00
2018-09-27T16:09:01.206Z,53.00
2018-09-27T16:11:32.841Z,53.00
2018-09-27T16:14:04.276Z,53.00
2018-09-27T16:16:35.740Z,52.70
2018-09-27T16:24:09.889Z,52.10
2018-09-27T16:26:41.376Z,52.90
2018-09-27T16:29:12.868Z,53.00
2018-09-27T16:31:44.398Z,53.00
2018-09-27T16:34:15.870Z,53.10
2018-09-27T16:36:47.435Z,53.10
2018-09-27T16:39:18.695Z,53.70
2018-09-27T16:41:50.203Z,52.60
2018-09-27T16:44:21.806Z,53.20
2018-09-27T16:46:53.279Z,53.30
2018-09-27T16:49:24.784Z,52.90
2018-09-27T16:51:56.415Z,53.30
2018-09-27T16:54:28.708Z,53.00
2018-09-27T16:57:00.202Z,53.30
2018-09-27T16:59:31.675Z,53.30
2018-09-27T17:02:03.224Z,53.30
2018-09-27T17:04:34.723Z,53.40
2018-09-27T17:07:06.312Z,53.50
2018-09-27T17:09:37.782Z,52.90
2018-09-27T17:12:09.198Z,53.50
2018-09-27T17:14:40.761Z,53.30
2018-09-27T17:17:12.324Z,53.60
2018-09-27T17:19:43.790Z,53.30
2018-09-27T17:22:15.297Z,53.70
2018-09-27T17:24:46.749Z,53.50
2018-09-27T17:27:18.499Z,53.80
2018-09-27T17:29:49.862Z,53.50
2018-09-27T17:32:21.403Z,53.80
2018-09-27T17:34:53.203Z,53.60
2018-09-27T17:37:24.738Z,54.10
2018-09-27T17:39:56.227Z,54.20
2018-09-27T17:42:27.706Z,54.10
2018-09-27T17:44:59.503Z,54.30
2018-09-27T17:47:31.065Z,53.80
2018-09-27T17:50:02.496Z,54.30
2018-09-27T17:52:33.921Z,54.40
2018-09-27T17:55:04.538Z,54.50
2018-09-27T17:57:35.974Z,54.50
2018-09-27T18:00:06.596Z,54.30
2018-09-27T18:02:38.199Z,54.40
2018-09-27T18:05:18.981Z,54.40
2018-09-27T18:07:41.701Z,54.50
2018-09-27T18:10:13.205Z,55.20
2018-09-27T18:12:44.663Z,54.80
2018-09-27T18:15:16.227Z,54.90
2018-09-27T18:17:47.901Z,54.60
2018-09-27T18:20:19.433Z,54.90
2018-09-27T18:22:51.229Z,54.90
2018-09-27T18:25:22.747Z,55.10
2018-09-27T18:27:55.196Z,55.00
2018-09-27T18:30:26.753Z,54.80
2018-09-27T18:32:58.312Z,55.80
2018-09-27T18:35:29.741Z,54.70
2018-09-27T18:38:01.407Z,55.10
2018-09-27T18:40:32.795Z,55.00
2018-09-27T18:43:04.379Z,55.30
2018-09-27T18:45:35.719Z,55.00
2018-09-27T18:48:07.547Z,56.00
2018-09-27T18:50:39.199Z,55.40
2018-09-27T18:53:10.751Z,55.50
2018-09-27T18:55:42.609Z,55.40
2018-09-27T18:58:14.199Z,55.40
2018-09-27T19:00:45.771Z,55.80
2018-09-27T19:08:20.508Z,54.90
2018-09-27T19:10:53.854Z,55.80
2018-09-27T19:13:25.662Z,55.90
2018-09-27T19:15:57.202Z,55.90
2018-09-27T19:18:28.744Z,56.10
2018-09-27T19:21:00.185Z,56.00
2018-09-27T19:23:31.735Z,55.70
2018-09-27T19:26:03.428Z,56.00
2018-09-27T19:28:34.805Z,55.80
2018-09-27T19:31:06.303Z,56.10
2018-09-27T19:33:37.727Z,55.70
2018-09-27T19:36:09.501Z,56.30
2018-09-27T19:38:40.995Z,56.80
2018-09-27T19:41:12.503Z,56.30
2018-09-27T19:43:44.213Z,56.30
2018-09-27T19:46:15.809Z,56.20
2018-09-27T19:48:47.406Z,56.70
2018-09-27T19:51:19.223Z,55.90
2018-09-27T19:53:50.748Z,56.10
2018-09-27T19:56:22.438Z,56.20
2018-09-27T19:58:53.993Z,55.80
2018-09-27T20:01:25.637Z,56.20
2018-09-27T20:03:57.323Z,56.30
2018-09-27T20:06:28.734Z,56.20
2018-09-27T20:09:00.203Z,56.30
2018-09-27T20:11:31.725Z,55.80
2018-09-27T20:14:03.397Z,56.20
2018-09-27T20:16:35.280Z,55.90
2018-09-27T20:19:06.714Z,56.10
2018-09-27T20:21:38.500Z,56.10
2018-09-27T20:24:10.301Z,56.10
2018-09-27T20:26:41.699Z,56.10
2018-09-27T20:29:13.687Z,56.00
2018-09-27T20:31:45.197Z,55.90
2018-09-27T20:34:16.895Z,55.90
2018-09-27T20:36:48.317Z,55.80
2018-09-27T20:39:19.878Z,55.50
2018-09-27T20:41:51.399Z,55.70
2018-09-27T20:44:23.858Z,55.70
2018-09-27T20:46:55.605Z,55.60
2018-09-27T20:49:27.334Z,55.20
2018-09-27T20:51:58.875Z,55.60
2018-09-27T20:54:30.510Z,55.50
2018-09-27T20:57:02.199Z,55.50
2018-09-27T20:59:35.834Z,55.50
2018-09-27T21:02:07.516Z,55.50
2018-09-27T21:04:39.174Z,55.30
2018-09-27T21:07:10.711Z,55.30
2018-09-27T21:09:42.402Z,55.30
2018-09-27T21:12:17.348Z,55.90
2018-09-27T21:14:48.845Z,55.20
2018-09-27T21:17:20.403Z,55.20
2018-09-27T21:19:52.361Z,54.80
2018-09-27T21:22:25.191Z,55.10
2018-09-27T21:24:56.690Z,54.90
2018-09-27T21:27:28.281Z,54.80
2018-09-27T21:29:59.799Z,54.70
2018-09-27T21:32:31.526Z,54.80
2018-09-27T21:35:03.072Z,54.30
2018-09-27T21:37:34.693Z,54.50
2018-09-27T21:40:06.351Z,54.60
2018-09-27T21:42:37.696Z,54.40
2018-09-27T21:45:09.210Z,54.30
2018-09-27T21:47:40.667Z,54.30
2018-09-27T21:50:12.279Z,54.30
2018-09-27T21:52:43.727Z,54.30
2018-09-27T21:55:16.539Z,54.10
2018-09-27T21:57:48.973Z,54.10
2018-09-27T22:00:20.761Z,53.90
2018-09-27T22:02:53.899Z,54.00
2018-09-27T22:05:25.893Z,53.60
2018-09-27T22:07:59.220Z,53.80
2018-09-27T22:10:34.795Z,54.20
2018-09-27T22:13:06.417Z,53.90
2018-09-27T22:15:37.988Z,53.40
2018-09-27T22:18:09.513Z,53.90
2018-09-27T22:20:40.884Z,53.80
2018-09-27T22:23:12.361Z,53.80
2018-09-27T22:25:43.916Z,53.80
2018-09-27T22:28:15.645Z,53.80
2018-09-27T22:30:47.024Z,53.50
2018-09-27T22:33:18.611Z,53.70
2018-09-27T22:35:50.226Z,53.80
2018-09-27T22:38:21.737Z,53.70
2018-09-27T22:46:38.711Z,52.70
2018-09-27T22:49:10.370Z,53.50
2018-09-27T22:51:41.729Z,53.40
2018-09-27T22:54:13.206Z,53.60
2018-09-27T22:56:44.736Z,53.50
2018-09-27T22:59:16.190Z,53.40
2018-09-27T23:01:47.662Z,52.80
2018-09-27T23:04:19.312Z,53.50
2018-09-27T23:06:51.347Z,53.40
2018-09-27T23:09:23.666Z,53.40
2018-09-27T23:11:55.213Z,53.40
2018-09-27T23:14:26.727Z,53.40
2018-09-27T23:16:58.381Z,53.30
2018-09-27T23:19:29.862Z,53.50
2018-09-27T23:22:01.590Z,53.40
2018-09-27T23:24:33.320Z,53.50
2018-09-27T23:27:04.797Z,53.60
2018-09-27T23:29:36.319Z,54.00
2018-09-27T23:32:07.888Z,53.30
2018-09-27T23:34:39.362Z,53.50
2018-09-27T23:37:10.737Z,53.60
2018-09-27T23:39:42.402Z,53.80
2018-09-27T23:42:13.838Z,53.10
2018-09-27T23:44:45.410Z,54.00
2018-09-27T23:47:16.762Z,53.30
2018-09-27T23:49:48.390Z,53.50
2018-09-27T23:52:19.750Z,53.40
2018-09-27T23:54:51.195Z,53.70
2018-09-27T23:57:22.708Z,53.60
2018-09-27T23:59:54.157Z,53.60
